Sunny Clover — H3SY — position and weather

sailwx.info

Track history (hours):
 
Tides and Currents Weather Stations Pressure Air Temp Water Temp Dewpoint Dewpoint Depression Visibility Wind Speed Wind Dir Waves Ship Positions

Sunny Clover

Last reported at 2017-Aug-14 15:13 UTC. Time now 2017-Aug-18 10:54 UTC.
Position N 24°44' E 119°28'.

Length 137 m; draft 6.7 m.

Type: Cargo ship. MMSI: 374431000.

Date/timePositionNaut miles runAvg speedWind from/ knotsBaromVisibWave heightAir tempDewpointWater temp
2017-Aug-14 15:13N 24°44' E 119°28'518.9
2017-Aug-14 14:58N 24°41' E 119°24'3618.7
2017-Aug-14 13:02N 24°19' E 118°53'018.5
2017-Aug-14 13:00N 24°18' E 118°53'917.8
2017-Aug-14 12:30N 24°13' E 118°45'917.7
2017-Aug-14 12:00N 24°07' E 118°38'1117.5
2017-Aug-14 11:24N 24°01' E 118°28'717.7
2017-Aug-14 11:00N 23°56' E 118°22'917.4
2017-Aug-14 10:30N 23°51' E 118°15'917.4
2017-Aug-14 10:00N 23°45' E 118°08'816.5
2017-Aug-14 09:30N 23°40' E 118°01'816.6
2017-Aug-14 09:00N 23°35' E 117°54'5017.8
2017-Aug-14 06:13N 23°06' E 117°10'617.9
2017-Aug-14 05:51N 23°03' E 117°04'2117.6
2017-Aug-14 04:40N 22°54' E 116°43'  
2017-Aug-10 03:05N 20°28' E 111°23'714.6
2017-Aug-10 02:35N 20°32' E 111°30'214.5
2017-Aug-10 02:28N 20°33' E 111°31'18013.3
2017-Aug-09 13:00N 22°20' E 114°07'165 6.4
2017-Aug-08 11:19N 23°02' E 116°60'105 9.0
2017-Aug-07 23:36N 24°04' E 118°33'214.5
2017-Aug-07 23:28N 24°05' E 118°34'714.6
2017-Aug-07 23:00N 24°09' E 118°40'1514.7
2017-Aug-07 21:59N 24°18' E 118°53'  
Track history (hours):
 
Tides and Currents Weather Stations Pressure Air Temp Water Temp Dewpoint Dewpoint Depression Visibility Wind Speed Wind Dir Waves Ship Positions

Sunny Clover

Last reported at 2017-Aug-14 15:13 UTC. Time now 2017-Aug-18 10:54 UTC.
Position N 24°44' E 119°28'.

Length 137 m; draft 6.7 m.

Type: Cargo ship. MMSI: 374431000.

Date/timePositionNaut miles runAvg speedWind from/ knotsBaromVisibWave heightAir tempDewpointWater temp
2017-Aug-14 15:13N 24°44' E 119°28'518.9
2017-Aug-14 14:58N 24°41' E 119°24'3618.7
2017-Aug-14 13:02N 24°19' E 118°53'018.5
2017-Aug-14 13:00N 24°18' E 118°53'917.8
2017-Aug-14 12:30N 24°13' E 118°45'917.7
2017-Aug-14 12:00N 24°07' E 118°38'1117.5
2017-Aug-14 11:24N 24°01' E 118°28'717.7
2017-Aug-14 11:00N 23°56' E 118°22'917.4
2017-Aug-14 10:30N 23°51' E 118°15'917.4
2017-Aug-14 10:00N 23°45' E 118°08'816.5
2017-Aug-14 09:30N 23°40' E 118°01'816.6
2017-Aug-14 09:00N 23°35' E 117°54'5017.8
2017-Aug-14 06:13N 23°06' E 117°10'617.9
2017-Aug-14 05:51N 23°03' E 117°04'2117.6
2017-Aug-14 04:40N 22°54' E 116°43'  
2017-Aug-10 03:05N 20°28' E 111°23'714.6
2017-Aug-10 02:35N 20°32' E 111°30'214.5
2017-Aug-10 02:28N 20°33' E 111°31'18013.3
2017-Aug-09 13:00N 22°20' E 114°07'165 6.4
2017-Aug-08 11:19N 23°02' E 116°60'105 9.0
2017-Aug-07 23:36N 24°04' E 118°33'214.5
2017-Aug-07 23:28N 24°05' E 118°34'714.6
2017-Aug-07 23:00N 24°09' E 118°40'1514.7
2017-Aug-07 21:59N 24°18' E 118°53'  

Dump ship's entire track history